Time;durP1;ratioP1;P1;durP2;ratioP2;P2;SDS_P1;SDS_P2;PMS_P1;PMS_P2;Temp;Humidity;BMP_temperature;BMP_pressure;BME280_temperature;BME280_humidity;BME280_pressure;Samples;Min_cycle;Max_cycle;Signal;HPM_P1;HPM_P2
2020/12/21 00:00:13;;;;;;;10.85;3.55;;;7.50;99.90;;;;;;4957245;28;20501;-84
2020/12/21 00:02:39;;;;;;;11.45;2.80;;;7.50;99.90;;;;;;4941856;28;20062;-84
2020/12/21 00:05:05;;;;;;;15.15;3.65;;;7.60;99.90;;;;;;4957119;28;20057;-86
2020/12/21 00:07:32;;;;;;;12.60;3.42;;;7.60;99.90;;;;;;4974854;28;20030;-84
2020/12/21 00:09:57;;;;;;;14.32;2.55;;;7.60;99.90;;;;;;4957619;28;20062;-84
2020/12/21 00:12:23;;;;;;;12.57;2.92;;;7.60;99.90;;;;;;4973286;28;20131;-84
2020/12/21 00:14:48;;;;;;;10.25;3.03;;;7.60;99.90;;;;;;4973335;28;20456;-84
2020/12/21 00:17:14;;;;;;;14.82;3.03;;;7.60;99.90;;;;;;4973300;28;20031;-84
2020/12/21 00:19:40;;;;;;;13.90;3.30;;;7.60;99.90;;;;;;4957353;28;20049;-85
2020/12/21 00:22:05;;;;;;;10.93;2.67;;;7.70;99.90;;;;;;4941524;28;20464;-83
2020/12/21 00:24:31;;;;;;;10.38;2.95;;;7.50;99.90;;;;;;4957127;28;20448;-85
2020/12/21 00:26:56;;;;;;;8.02;2.53;;;7.50;99.90;;;;;;4957073;28;20031;-84
2020/12/21 00:29:22;;;;;;;10.45;2.58;;;7.50;99.90;;;;;;4958124;28;20035;-83
2020/12/21 00:31:48;;;;;;;11.60;2.97;;;7.50;99.90;;;;;;4960856;28;20035;-85
2020/12/21 00:34:15;;;;;;;14.13;3.08;;;7.50;99.90;;;;;;4962161;28;20109;-84
2020/12/21 00:36:50;;;;;;;12.07;3.85;;;7.50;99.90;;;;;;4963364;28;20078;-84
2020/12/21 00:39:16;;;;;;;16.55;3.55;;;7.50;99.90;;;;;;4980128;28;20090;-85
2020/12/21 00:41:46;;;;;;;9.68;2.58;;;7.60;99.90;;;;;;4960602;28;20488;-86
2020/12/21 00:44:12;;;;;;;10.88;3.13;;;7.60;99.90;;;;;;4977826;28;20022;-85
2020/12/21 00:46:38;;;;;;;10.27;3.33;;;7.50;99.90;;;;;;4960581;28;20034;-84
2020/12/21 00:49:05;;;;;;;19.88;3.47;;;7.50;99.90;;;;;;4960621;28;20027;-84
2020/12/21 00:51:31;;;;;;;15.05;3.63;;;7.50;99.90;;;;;;4977797;28;20105;-84
2020/12/21 00:53:57;;;;;;;14.35;3.40;;;7.50;99.90;;;;;;4960285;28;20441;-86
2020/12/21 00:56:23;;;;;;;12.20;3.10;;;7.60;99.90;;;;;;4959941;28;20047;-85
2020/12/21 00:58:49;;;;;;;9.45;3.38;;;7.60;99.90;;;;;;4944590;28;20041;-84
2020/12/21 01:01:21;;;;;;;16.00;3.83;;;7.60;99.90;;;;;;4977349;28;20030;-84
2020/12/21 01:03:47;;;;;;;15.60;3.58;;;7.40;99.90;;;;;;4977347;28;20019;-83
2020/12/21 01:06:13;;;;;;;11.63;3.63;;;7.30;99.90;;;;;;4960124;28;20356;-84
2020/12/21 01:08:39;;;;;;;14.48;3.63;;;7.20;99.90;;;;;;4960163;28;20489;-84
2020/12/21 01:11:16;;;;;;;11.45;3.72;;;7.10;99.90;;;;;;4959630;28;20027;-84
2020/12/21 01:13:43;;;;;;;12.13;3.67;;;7.20;99.90;;;;;;4959930;28;20022;-84
2020/12/21 01:16:09;;;;;;;12.82;3.78;;;7.20;99.90;;;;;;4975936;28;20495;-85
2020/12/21 01:18:35;;;;;;;11.93;3.72;;;7.10;99.90;;;;;;4959906;28;20448;-85
2020/12/21 01:21:01;;;;;;;17.35;3.70;;;7.20;99.90;;;;;;4977102;28;20031;-85
2020/12/21 01:23:27;;;;;;;15.73;4.43;;;7.20;99.90;;;;;;4959638;28;20472;-84
2020/12/21 01:25:53;;;;;;;10.68;3.67;;;7.00;99.90;;;;;;4943672;28;20264;-84
2020/12/21 01:28:19;;;;;;;17.10;4.40;;;7.10;99.90;;;;;;4976704;28;20034;-83
2020/12/21 01:30:45;;;;;;;13.55;4.18;;;7.10;99.90;;;;;;4943422;28;20031;-84
2020/12/21 01:33:11;;;;;;;21.10;4.32;;;7.00;99.90;;;;;;4959701;28;20122;-85
2020/12/21 01:35:37;;;;;;;14.55;4.40;;;7.20;99.90;;;;;;4977042;28;20031;-84
2020/12/21 01:38:04;;;;;;;15.38;5.25;;;7.00;99.90;;;;;;4961004;28;20073;-84
2020/12/21 01:40:30;;;;;;;17.95;4.47;;;7.10;99.90;;;;;;4960575;28;20118;-83
2020/12/21 01:42:55;;;;;;;15.05;5.82;;;7.00;99.90;;;;;;4944830;28;20121;-85
2020/12/21 01:45:21;;;;;;;20.35;6.05;;;6.90;99.90;;;;;;4978652;28;20027;-84
2020/12/21 01:47:47;;;;;;;15.18;5.07;;;6.80;99.90;;;;;;4959976;28;20026;-83
2020/12/21 01:50:13;;;;;;;20.08;5.10;;;6.80;99.90;;;;;;4959339;28;20030;-84
2020/12/21 01:52:39;;;;;;;15.85;5.32;;;6.80;99.90;;;;;;4943026;28;20178;-83
2020/12/21 01:55:05;;;;;;;18.65;5.75;;;6.70;99.90;;;;;;4959439;28;20054;-84
2020/12/21 01:57:31;;;;;;;13.52;5.03;;;6.70;99.90;;;;;;4976561;28;20520;-85
2020/12/21 01:59:57;;;;;;;13.52;4.70;;;6.80;99.90;;;;;;4959230;28;20162;-84
2020/12/21 02:02:22;;;;;;;25.30;6.40;;;6.80;99.90;;;;;;4962548;28;20073;-85
2020/12/21 02:04:48;;;;;;;18.70;5.75;;;6.70;99.90;;;;;;4975215;28;20031;-85
2020/12/21 02:07:15;;;;;;;15.95;5.53;;;6.70;99.90;;;;;;4958749;28;20035;-85
2020/12/21 02:09:42;;;;;;;17.15;5.68;;;6.70;99.90;;;;;;4959010;28;20034;-84
2020/12/21 02:12:11;;;;;;;19.27;5.63;;;6.70;99.90;;;;;;4976273;28;20031;-84
2020/12/21 02:14:36;;;;;;;18.88;6.22;;;6.70;99.90;;;;;;4959174;28;20026;-84
2020/12/21 02:17:03;;;;;;;15.75;6.13;;;6.70;99.90;;;;;;4959249;28;20031;-85
2020/12/21 02:19:28;;;;;;;29.15;7.78;;;6.70;99.90;;;;;;4959260;28;20070;-84
2020/12/21 02:21:54;;;;;;;20.77;8.10;;;6.50;99.90;;;;;;4959100;28;20062;-84
2020/12/21 02:24:19;;;;;;;24.75;8.00;;;6.50;99.90;;;;;;4958669;28;20114;-85
2020/12/21 02:26:45;;;;;;;16.63;6.72;;;6.50;99.90;;;;;;4976645;28;20027;-86
2020/12/21 02:29:11;;;;;;;17.38;7.57;;;6.50;99.90;;;;;;4956132;28;20034;-84
2020/12/21 02:31:36;;;;;;;21.65;7.22;;;6.50;99.90;;;;;;4963297;28;20034;-84
2020/12/21 02:34:02;;;;;;;24.08;8.23;;;6.50;99.90;;;;;;4974611;28;20019;-85
2020/12/21 02:36:28;;;;;;;20.45;7.80;;;6.50;99.90;;;;;;4975896;28;20019;-84
2020/12/21 02:38:53;;;;;;;18.70;7.60;;;6.50;99.90;;;;;;4958021;28;20424;-84
2020/12/21 02:41:19;;;;;;;25.15;7.95;;;6.50;99.90;;;;;;4942545;28;20384;-84
2020/12/21 02:43:45;;;;;;;27.40;9.23;;;6.50;99.90;;;;;;4942265;28;20452;-84
2020/12/21 02:46:13;;;;;;;23.42;8.80;;;6.50;99.90;;;;;;4958218;28;20034;-84
2020/12/21 02:48:39;;;;;;;32.75;9.88;;;6.50;99.90;;;;;;4957997;28;20073;-85
2020/12/21 02:51:05;;;;;;;22.15;8.02;;;6.50;99.90;;;;;;4975413;28;20023;-85
2020/12/21 02:53:30;;;;;;;31.58;10.85;;;6.50;99.90;;;;;;4958137;28;20050;-85
2020/12/21 02:55:56;;;;;;;29.13;8.75;;;6.40;99.90;;;;;;4942075;28;20408;-84
2020/12/21 02:58:22;;;;;;;26.30;9.88;;;6.50;99.90;;;;;;4973785;28;20053;-85
2020/12/21 03:00:47;;;;;;;27.52;9.30;;;6.50;99.90;;;;;;4957697;28;20069;-84
2020/12/21 03:03:13;;;;;;;20.63;8.27;;;6.40;99.90;;;;;;4975618;28;20038;-83
2020/12/21 03:05:40;;;;;;;24.17;8.95;;;6.50;99.90;;;;;;4974210;28;20572;-84
2020/12/21 03:08:07;;;;;;;26.50;8.85;;;6.40;99.90;;;;;;4957825;28;20066;-84
2020/12/21 03:10:34;;;;;;;25.48;9.32;;;6.40;99.90;;;;;;4958112;28;20053;-84
2020/12/21 03:13:00;;;;;;;25.08;9.25;;;6.50;99.90;;;;;;4975518;28;20313;-85
2020/12/21 03:15:26;;;;;;;22.88;8.50;;;6.60;99.90;;;;;;4975067;28;20030;-84
2020/12/21 03:17:52;;;;;;;33.70;10.93;;;6.50;99.90;;;;;;4975017;28;20022;-84
2020/12/21 03:20:18;;;;;;;24.67;9.50;;;6.60;99.90;;;;;;4957427;28;20061;-84
2020/12/21 03:22:47;;;;;;;27.02;9.88;;;6.50;99.90;;;;;;4974005;28;20397;-84
2020/12/21 03:25:13;;;;;;;24.58;9.68;;;6.60;99.90;;;;;;4974124;28;20027;-84
2020/12/21 03:27:40;;;;;;;30.42;10.30;;;6.60;99.90;;;;;;4957288;28;20027;-85
2020/12/21 03:30:06;;;;;;;19.85;8.55;;;6.50;99.90;;;;;;4958014;28;20114;-83
2020/12/21 03:32:32;;;;;;;29.08;10.00;;;6.60;99.90;;;;;;4974775;28;20101;-85
2020/12/21 03:34:57;;;;;;;24.55;8.80;;;6.50;99.90;;;;;;4957480;28;20078;-85
2020/12/21 03:37:23;;;;;;;18.25;8.43;;;6.60;99.90;;;;;;4941387;28;20126;-85
2020/12/21 03:39:48;;;;;;;27.98;9.80;;;6.70;99.90;;;;;;4958070;28;20472;-84
2020/12/21 03:42:14;;;;;;;24.23;8.32;;;6.60;99.90;;;;;;4974778;28;20515;-84
2020/12/21 03:44:40;;;;;;;23.42;9.02;;;6.70;99.90;;;;;;4957643;28;20407;-84
2020/12/21 03:47:05;;;;;;;31.95;11.00;;;6.70;99.90;;;;;;4974843;28;20027;-85
2020/12/21 03:49:31;;;;;;;30.85;10.40;;;6.70;99.90;;;;;;4957173;28;20089;-84
2020/12/21 03:51:56;;;;;;;25.40;9.63;;;6.50;99.90;;;;;;4941380;28;20456;-85
2020/12/21 03:54:23;;;;;;;25.13;8.98;;;6.60;99.90;;;;;;4974641;28;20051;-84
2020/12/21 03:56:49;;;;;;;32.00;10.45;;;6.50;99.90;;;;;;4938360;29;20464;-83
2020/12/21 03:59:14;;;;;;;36.80;9.38;;;6.50;99.90;;;;;;4955301;28;20114;-85
2020/12/21 04:01:40;;;;;;;26.45;8.60;;;6.50;99.90;;;;;;4954494;29;20045;-85
2020/12/21 04:04:06;;;;;;;24.38;9.10;;;6.50;99.90;;;;;;4955705;28;20450;-85
2020/12/21 04:06:35;;;;;;;35.10;8.43;;;6.40;99.90;;;;;;4958965;28;20380;-83
2020/12/21 04:09:02;;;;;;;29.98;10.77;;;6.40;99.90;;;;;;4957976;29;20023;-84
2020/12/21 04:11:28;;;;;;;26.80;9.63;;;6.30;99.90;;;;;;4941484;29;20066;-85
2020/12/21 04:13:54;;;;;;;23.98;8.98;;;6.40;99.90;;;;;;4959229;28;20031;-84
2020/12/21 04:16:19;;;;;;;25.00;8.88;;;6.50;99.90;;;;;;4958192;29;20453;-85
2020/12/21 04:18:45;;;;;;;28.73;9.52;;;6.40;99.90;;;;;;4941817;28;20074;-84
2020/12/21 04:21:14;;;;;;;25.48;9.32;;;6.40;99.90;;;;;;4957983;29;20395;-84
2020/12/21 04:23:40;;;;;;;22.35;8.50;;;6.40;99.90;;;;;;4958759;28;20031;-85
2020/12/21 04:26:06;;;;;;;24.60;9.70;;;6.40;99.90;;;;;;4957967;29;20033;-85
2020/12/21 04:28:32;;;;;;;24.10;8.93;;;6.50;99.90;;;;;;4957878;29;20110;-85
2020/12/21 04:31:05;;;;;;;25.65;9.07;;;6.50;99.90;;;;;;4957421;29;20030;-84
2020/12/21 04:33:31;;;;;;;25.13;9.00;;;6.50;99.90;;;;;;4958817;28;20107;-84
2020/12/21 04:35:57;;;;;;;24.27;8.88;;;6.50;99.90;;;;;;4941644;29;20031;-85
2020/12/21 04:38:23;;;;;;;27.88;8.43;;;6.50;99.90;;;;;;4957364;29;20368;-84
2020/12/21 04:40:52;;;;;;;30.45;10.50;;;6.50;99.90;;;;;;4941495;29;20031;-85
2020/12/21 04:43:19;;;;;;;28.65;10.48;;;6.40;99.90;;;;;;4957712;29;20117;-85
2020/12/21 04:45:47;;;;;;;24.92;9.00;;;6.50;99.90;;;;;;4942205;29;20110;-84
2020/12/21 04:48:15;;;;;;;26.75;8.60;;;6.50;99.90;;;;;;4957220;29;20030;-83
2020/12/21 04:50:42;;;;;;;32.17;8.65;;;6.50;99.90;;;;;;4957151;29;20049;-84
2020/12/21 04:53:09;;;;;;;29.92;8.88;;;6.50;99.90;;;;;;4957620;29;20062;-84
2020/12/21 04:55:35;;;;;;;29.17;9.40;;;6.50;99.90;;;;;;4941833;29;20031;-84
2020/12/21 04:58:03;;;;;;;24.70;9.23;;;6.50;99.90;;;;;;4957053;29;20043;-84
2020/12/21 05:00:31;;;;;;;22.98;8.57;;;6.60;99.90;;;;;;4956921;29;20384;-84
2020/12/21 05:02:56;;;;;;;36.90;8.40;;;6.60;99.90;;;;;;4956984;29;20042;-84
2020/12/21 05:05:39;;;;;;;32.30;9.68;;;6.50;99.90;;;;;;4967270;29;20027;-85
2020/12/21 05:08:11;;;;;;;24.48;9.13;;;6.60;99.90;;;;;;4965253;28;20019;-85
2020/12/21 05:10:39;;;;;;;22.08;8.27;;;6.60;99.90;;;;;;4958225;28;20027;-84
2020/12/21 05:13:05;;;;;;;25.50;8.00;;;6.60;99.90;;;;;;4957024;28;20464;-83
2020/12/21 05:15:31;;;;;;;27.17;9.20;;;6.60;99.90;;;;;;4939458;29;20031;-85
2020/12/21 05:18:07;;;;;;;18.52;8.52;;;6.60;99.90;;;;;;4957749;28;20346;-84
2020/12/21 05:20:34;;;;;;;26.67;8.98;;;6.60;99.90;;;;;;4956735;29;20034;-85
2020/12/21 05:23:02;;;;;;;21.52;7.72;;;6.60;99.90;;;;;;4956708;29;20034;-85
2020/12/21 05:25:27;;;;;;;28.95;9.15;;;6.70;99.90;;;;;;4956317;29;20030;-84
2020/12/21 05:27:53;;;;;;;29.58;8.73;;;6.60;99.90;;;;;;4956738;29;20118;-84
2020/12/21 05:30:19;;;;;;;25.50;9.20;;;6.60;99.90;;;;;;4956312;29;20027;-84
2020/12/21 05:32:44;;;;;;;32.80;10.32;;;6.60;99.90;;;;;;4956501;29;20067;-84
2020/12/21 05:35:13;;;;;;;28.42;8.57;;;6.40;99.90;;;;;;4940387;29;20032;-85
2020/12/21 05:37:39;;;;;;;20.30;10.05;;;6.40;99.90;;;;;;4956444;29;20026;-85
2020/12/21 05:40:07;;;;;;;18.13;7.55;;;6.30;99.90;;;;;;4940308;29;20035;-84
2020/12/21 05:42:35;;;;;;;35.08;9.27;;;6.40;99.90;;;;;;4940623;29;20054;-84
2020/12/21 05:45:07;;;;;;;21.33;9.60;;;6.30;99.90;;;;;;4959727;29;20120;-84
2020/12/21 05:47:33;;;;;;;35.30;9.68;;;6.20;99.90;;;;;;4957762;28;20560;-84
2020/12/21 05:50:06;;;;;;;29.00;9.60;;;6.20;99.90;;;;;;4956151;29;20034;-84
2020/12/21 05:52:38;;;;;;;32.92;9.68;;;6.20;99.90;;;;;;4940049;29;20031;-84
2020/12/21 05:55:11;;;;;;;33.20;8.93;;;6.10;99.90;;;;;;4956165;29;20150;-84
2020/12/21 05:57:38;;;;;;;24.58;9.55;;;6.10;99.90;;;;;;4955859;29;20051;-84
2020/12/21 06:00:11;;;;;;;22.77;10.30;;;6.10;99.90;;;;;;4955862;29;20062;-84
2020/12/21 06:02:37;;;;;;;27.48;10.32;;;6.00;99.90;;;;;;4957039;28;20038;-85
2020/12/21 06:05:09;;;;;;;32.78;10.80;;;6.00;99.90;;;;;;4955920;29;20020;-85
2020/12/21 06:07:37;;;;;;;22.85;9.98;;;6.00;99.90;;;;;;4957618;28;20033;-85
2020/12/21 06:10:09;;;;;;;26.30;10.35;;;6.00;99.90;;;;;;4955787;29;20037;-85
2020/12/21 06:12:44;;;;;;;24.88;10.18;;;6.10;99.90;;;;;;4955914;29;20027;-83
2020/12/21 06:15:11;;;;;;;;;;;6.10;99.90;;;;;;4957329;29;20027;-84
2020/12/21 06:17:37;;;;;;;35.88;11.07;;;6.20;99.90;;;;;;4957057;29;20005;-83
2020/12/21 06:20:08;;;;;;;29.23;11.85;;;6.20;99.90;;;;;;4939813;29;20122;-85
2020/12/21 06:22:35;;;;;;;32.15;12.00;;;6.20;99.90;;;;;;4956918;28;20039;-84
2020/12/21 06:25:05;;;;;;;30.33;13.07;;;6.20;99.90;;;;;;4955655;28;20033;-84
2020/12/21 06:27:41;;;;;;;35.13;13.00;;;6.20;99.90;;;;;;4939498;29;20116;-84
2020/12/21 06:30:10;;;;;;;37.42;15.60;;;6.20;99.90;;;;;;4955102;29;20027;-84
2020/12/21 06:32:37;;;;;;;26.30;12.60;;;6.20;99.90;;;;;;4956763;28;20519;-84
2020/12/21 06:35:18;;;;;;;35.08;15.13;;;6.20;99.90;;;;;;4956212;28;20461;-84
2020/12/21 06:37:57;;;;;;;26.83;12.55;;;6.30;99.90;;;;;;4955316;29;20030;-84
2020/12/21 06:43:36;;;;;;;30.35;13.82;;;6.40;99.90;;;;;;4956507;29;20158;-84
2020/12/21 06:46:02;;;;;;;28.20;12.13;;;6.30;99.90;;;;;;4955076;29;20061;-84
2020/12/21 06:48:28;;;;;;;29.65;13.90;;;6.30;99.90;;;;;;4956257;29;20052;-84
2020/12/21 06:50:54;;;;;;;31.75;13.15;;;6.30;99.90;;;;;;4956500;28;20050;-84
2020/12/21 06:53:19;;;;;;;35.33;14.13;;;6.40;99.90;;;;;;4954948;29;20453;-85
2020/12/21 06:55:45;;;;;;;26.73;12.65;;;6.30;99.90;;;;;;4954595;29;20134;-84
2020/12/21 06:58:11;;;;;;;32.40;12.50;;;6.30;99.90;;;;;;4939235;29;20047;-84
2020/12/21 07:00:36;;;;;;;31.05;12.27;;;6.40;99.90;;;;;;4954791;29;20038;-84
2020/12/21 07:03:02;;;;;;;41.88;15.38;;;6.40;99.90;;;;;;4954837;29;20516;-84
2020/12/21 07:05:28;;;;;;;27.85;12.95;;;6.30;99.90;;;;;;4954531;29;20041;-83
2020/12/21 07:08:00;;;;;;;31.00;12.48;;;6.40;99.90;;;;;;4938984;29;20039;-83
2020/12/21 07:10:26;;;;;;;36.70;14.35;;;6.30;99.90;;;;;;4954691;29;20468;-83
2020/12/21 07:12:52;;;;;;;31.80;14.48;;;6.30;99.90;;;;;;4954722;29;20126;-85
2020/12/21 07:15:21;;;;;;;39.95;14.43;;;6.40;99.90;;;;;;4955009;29;20046;-84
2020/12/21 07:17:46;;;;;;;32.10;14.10;;;6.40;99.90;;;;;;4956111;28;20027;-83
2020/12/21 07:20:12;;;;;;;31.33;13.88;;;6.40;99.90;;;;;;4954934;28;20053;-84
2020/12/21 07:22:38;;;;;;;29.85;13.82;;;6.40;99.90;;;;;;4938302;29;20482;-85
2020/12/21 07:25:03;;;;;;;35.13;14.18;;;6.40;99.90;;;;;;4954813;29;20102;-84
2020/12/21 07:27:32;;;;;;;37.67;14.85;;;6.50;99.90;;;;;;4955337;29;20471;-85
2020/12/21 07:29:57;;;;;;;37.35;14.75;;;6.50;99.90;;;;;;4955676;28;20027;-84
2020/12/21 07:32:27;;;;;;;44.65;15.32;;;6.50;99.90;;;;;;4959955;29;20135;-84
2020/12/21 07:34:52;;;;;;;37.65;14.80;;;6.50;99.90;;;;;;4955696;28;20027;-84
2020/12/21 07:37:18;;;;;;;35.47;14.70;;;6.60;99.90;;;;;;4954781;29;20083;-85
2020/12/21 07:39:44;;;;;;;37.55;14.38;;;6.50;99.90;;;;;;4955229;28;20031;-85
2020/12/21 07:42:14;;;;;;;38.25;14.68;;;6.60;99.90;;;;;;4954920;29;20030;-82
2020/12/21 07:44:52;;;;;;;35.15;13.02;;;6.60;99.90;;;;;;4959744;29;20019;-83
2020/12/21 07:47:34;;;;;;;41.15;15.30;;;6.60;99.90;;;;;;4953568;29;20083;-84
2020/12/21 07:50:01;;;;;;;47.15;15.43;;;6.60;99.90;;;;;;4955804;28;20024;-84
2020/12/21 07:52:27;;;;;;;39.38;15.07;;;6.60;99.90;;;;;;4954083;29;20031;-86
2020/12/21 07:54:59;;;;;;;46.03;16.60;;;6.60;99.90;;;;;;4938069;29;20098;-85
2020/12/21 07:57:29;;;;;;;35.92;13.95;;;6.60;99.90;;;;;;4953789;29;20123;-87
2020/12/21 07:59:56;;;;;;;33.47;14.27;;;6.60;99.90;;;;;;4955327;28;20039;-84
2020/12/21 08:02:24;;;;;;;39.05;15.82;;;6.70;99.90;;;;;;4938235;29;20437;-84
2020/12/21 08:04:49;;;;;;;36.30;15.15;;;6.70;99.90;;;;;;4953664;29;20031;-85
2020/12/21 08:07:15;;;;;;;36.33;15.57;;;6.70;99.90;;;;;;4938055;29;20027;-86
2020/12/21 08:09:44;;;;;;;31.60;14.55;;;6.70;99.90;;;;;;4955275;28;20058;-84
2020/12/21 08:12:14;;;;;;;40.25;16.73;;;6.80;99.90;;;;;;4954997;28;20024;-84
2020/12/21 08:14:42;;;;;;;33.40;13.30;;;6.80;99.90;;;;;;4955561;28;20067;-86
2020/12/21 08:17:13;;;;;;;39.42;15.25;;;6.80;99.90;;;;;;4954910;29;20338;-85
2020/12/21 08:20:06;;;;;;;42.42;14.73;;;6.80;99.90;;;;;;4955484;29;20034;-85
2020/12/21 08:22:32;;;;;;;39.15;16.30;;;6.80;99.90;;;;;;4951043;29;20473;-84
2020/12/21 08:25:06;;;;;;;36.95;15.50;;;6.80;99.90;;;;;;4954842;29;20039;-84
2020/12/21 08:27:33;;;;;;;34.17;15.70;;;6.80;99.90;;;;;;4955890;29;20034;-85
2020/12/21 08:30:12;;;;;;;36.17;15.68;;;6.90;99.90;;;;;;4938767;29;20035;-85
2020/12/21 08:32:38;;;;;;;34.33;16.38;;;6.90;99.90;;;;;;4954736;29;20034;-84
2020/12/21 08:35:04;;;;;;;39.67;18.10;;;7.00;99.90;;;;;;4939271;29;20023;-85
2020/12/21 08:37:30;;;;;;;42.80;16.92;;;7.00;99.90;;;;;;4955836;28;20031;-86
2020/12/21 08:39:56;;;;;;;38.53;16.60;;;7.00;99.90;;;;;;4954465;29;20114;-85
2020/12/21 08:42:23;;;;;;;39.97;17.92;;;7.00;99.90;;;;;;4922279;29;20190;-88
2020/12/21 08:44:50;;;;;;;40.10;16.92;;;7.10;99.90;;;;;;4938209;29;20035;-84
2020/12/21 08:47:16;;;;;;;45.00;18.85;;;7.10;99.90;;;;;;4938372;29;20051;-83
2020/12/21 08:49:41;;;;;;;49.95;20.95;;;7.10;99.90;;;;;;4954860;28;20428;-92
2020/12/21 08:52:07;;;;;;;41.67;21.30;;;7.10;99.90;;;;;;4956918;29;20042;-84
2020/12/21 08:54:32;;;;;;;39.35;19.40;;;7.10;99.90;;;;;;4958157;29;20465;-83
2020/12/21 08:56:58;;;;;;;43.75;21.40;;;7.10;99.90;;;;;;4931342;29;20141;-83
2020/12/21 08:59:24;;;;;;;42.13;21.00;;;7.10;99.90;;;;;;4961356;29;20038;-84
2020/12/21 09:01:50;;;;;;;49.42;21.90;;;7.00;99.90;;;;;;4926400;29;20106;-84
2020/12/21 09:04:16;;;;;;;41.28;20.95;;;7.10;99.90;;;;;;4942221;29;20067;-82
2020/12/21 09:06:42;;;;;;;34.40;18.83;;;7.10;99.90;;;;;;4958624;28;20058;-84
2020/12/21 09:09:09;;;;;;;31.77;17.63;;;7.10;99.90;;;;;;4956314;29;20527;-83
2020/12/21 09:11:35;;;;;;;44.53;17.25;;;7.10;99.90;;;;;;4940574;29;20035;-83
2020/12/21 09:14:01;;;;;;;42.88;17.52;;;7.10;99.90;;;;;;4956456;29;20491;-83
2020/12/21 09:16:28;;;;;;;32.92;16.50;;;7.10;99.90;;;;;;4940874;29;20120;-85
2020/12/21 09:18:55;;;;;;;43.83;15.43;;;7.10;99.90;;;;;;4957091;29;20034;-84
2020/12/21 09:21:25;;;;;;;29.63;14.82;;;7.20;99.90;;;;;;4956592;29;20039;-83
2020/12/21 09:23:52;;;;;;;41.42;17.70;;;7.10;99.90;;;;;;4957442;29;20125;-86
2020/12/21 09:26:18;;;;;;;37.15;15.50;;;7.10;99.90;;;;;;4940704;29;20038;-84
2020/12/21 09:28:46;;;;;;;43.50;15.75;;;7.20;99.90;;;;;;4940346;29;20035;-83
2020/12/21 09:31:12;;;;;;;32.35;16.02;;;7.20;99.90;;;;;;4956712;29;20034;-84
2020/12/21 09:33:39;;;;;;;34.00;15.75;;;7.20;99.90;;;;;;4940536;29;20032;-84
2020/12/21 09:36:08;;;;;;;36.08;14.63;;;7.20;99.90;;;;;;4956280;29;20031;-82
2020/12/21 09:38:34;;;;;;;35.55;16.42;;;7.20;99.90;;;;;;4957156;29;20024;-85
2020/12/21 09:41:00;;;;;;;42.30;17.30;;;7.30;99.90;;;;;;4956266;29;20090;-84
2020/12/21 09:43:26;;;;;;;30.00;16.25;;;7.30;99.90;;;;;;4939985;29;20035;-83
2020/12/21 09:45:52;;;;;;;32.20;15.85;;;7.30;99.90;;;;;;4956173;29;20436;-84
2020/12/21 09:48:17;;;;;;;28.25;15.57;;;7.30;99.90;;;;;;4956126;29;20058;-82
2020/12/21 09:50:43;;;;;;;38.65;18.20;;;7.40;99.90;;;;;;4955738;29;20035;-84
2020/12/21 09:53:09;;;;;;;33.13;16.95;;;7.40;99.90;;;;;;4939641;29;20034;-84
2020/12/21 09:55:34;;;;;;;41.45;19.77;;;7.40;99.90;;;;;;4939952;29;20039;-84
2020/12/21 09:58:00;;;;;;;36.92;16.88;;;7.40;99.90;;;;;;4923999;29;20050;-84
2020/12/21 10:00:25;;;;;;;35.72;18.55;;;7.50;99.90;;;;;;4940041;29;20035;-83
2020/12/21 10:02:51;;;;;;;34.92;18.42;;;7.50;99.90;;;;;;4955086;28;20054;-84
2020/12/21 10:05:17;;;;;;;38.42;17.33;;;7.50;99.90;;;;;;4923968;29;20039;-84
2020/12/21 10:07:42;;;;;;;37.45;18.83;;;7.50;99.90;;;;;;4939679;29;20029;-82
2020/12/21 10:10:08;;;;;;;37.92;18.83;;;7.50;99.90;;;;;;4939617;29;20042;-84
2020/12/21 10:12:34;;;;;;;33.67;18.88;;;7.50;99.90;;;;;;4956374;29;20085;-83
2020/12/21 10:14:59;;;;;;;37.05;18.65;;;7.50;99.90;;;;;;4966610;29;20023;-81
2020/12/21 10:17:25;;;;;;;33.13;17.55;;;7.50;99.90;;;;;;4946971;29;20342;-82
2020/12/21 10:19:51;;;;;;;32.10;17.15;;;7.50;99.90;;;;;;4923703;29;20031;-87
2020/12/21 10:22:16;;;;;;;31.23;17.55;;;7.50;99.90;;;;;;4939622;29;20046;-83
2020/12/21 10:24:42;;;;;;;29.85;15.75;;;7.50;99.90;;;;;;4954856;29;20031;-82
2020/12/21 10:27:07;;;;;;;35.97;18.77;;;7.60;99.90;;;;;;4955118;29;20030;-84
2020/12/21 10:29:33;;;;;;;35.85;16.45;;;7.60;99.90;;;;;;4923183;29;20465;-83
2020/12/21 10:31:59;;;;;;;31.73;15.57;;;7.60;99.90;;;;;;4955079;29;20461;-85
2020/12/21 10:34:25;;;;;;;38.45;17.95;;;7.60;99.90;;;;;;4955402;29;20027;-83
2020/12/21 10:36:52;;;;;;;32.88;15.30;;;7.70;99.90;;;;;;4954995;29;20023;-85
2020/12/21 10:39:18;;;;;;;39.70;17.10;;;7.70;99.90;;;;;;4956256;29;20027;-84
2020/12/21 10:41:44;;;;;;;38.70;17.23;;;7.70;99.90;;;;;;4954865;29;20027;-85
2020/12/21 10:44:10;;;;;;;33.38;15.23;;;7.70;99.90;;;;;;4955247;29;20031;-83
2020/12/21 10:46:36;;;;;;;28.90;13.75;;;7.70;99.90;;;;;;4938839;29;20373;-85
2020/12/21 10:49:01;;;;;;;38.05;16.38;;;7.70;99.90;;;;;;4956578;29;20027;-84
2020/12/21 10:51:32;;;;;;;29.98;15.45;;;7.70;99.90;;;;;;4938908;29;20046;-85
2020/12/21 10:53:59;;;;;;;26.77;14.15;;;7.70;99.90;;;;;;4954902;29;20023;-84
2020/12/21 10:56:26;;;;;;;26.55;14.00;;;7.80;99.90;;;;;;4954720;28;20031;-84
2020/12/21 10:58:51;;;;;;;34.20;14.85;;;7.80;99.90;;;;;;4957654;28;20026;-83
2020/12/21 11:01:18;;;;;;;27.65;13.93;;;7.80;99.90;;;;;;4925481;28;20041;-84
2020/12/21 11:03:44;;;;;;;23.15;13.70;;;7.80;99.90;;;;;;4957731;28;20035;-84
2020/12/21 11:06:10;;;;;;;28.95;14.68;;;7.80;99.90;;;;;;4957605;28;20019;-83
2020/12/21 11:08:37;;;;;;;23.95;12.90;;;7.90;99.90;;;;;;4941879;28;20030;-83
2020/12/21 11:11:03;;;;;;;23.20;12.75;;;7.90;99.90;;;;;;4957504;28;20375;-84
2020/12/21 11:13:29;;;;;;;27.98;13.75;;;7.80;99.90;;;;;;4941516;28;20031;-85
2020/12/21 11:15:54;;;;;;;27.92;12.65;;;7.80;99.90;;;;;;4941938;28;20443;-84
2020/12/21 11:18:20;;;;;;;23.92;12.55;;;7.80;99.90;;;;;;4957697;28;20030;-83
2020/12/21 11:20:46;;;;;;;29.30;13.38;;;7.80;99.90;;;;;;4941541;28;20092;-84
2020/12/21 11:23:12;;;;;;;29.98;12.80;;;7.80;99.90;;;;;;4957518;28;20441;-84
2020/12/21 11:25:37;;;;;;;24.50;13.85;;;7.90;99.90;;;;;;4957638;28;20045;-84
2020/12/21 11:28:04;;;;;;;24.58;12.18;;;7.90;99.90;;;;;;4957150;28;20027;-84
2020/12/21 11:30:30;;;;;;;28.90;12.55;;;7.90;99.90;;;;;;4941482;28;20041;-85
2020/12/21 11:32:56;;;;;;;24.45;10.32;;;7.90;99.90;;;;;;4957080;28;20019;-84
2020/12/21 11:35:23;;;;;;;20.15;10.63;;;7.90;99.90;;;;;;4974210;28;20038;-85
2020/12/21 11:37:49;;;;;;;25.75;10.43;;;7.90;99.90;;;;;;4957700;28;20026;-84
2020/12/21 11:40:15;;;;;;;21.65;9.75;;;8.00;99.90;;;;;;4957265;28;20045;-84
2020/12/21 11:42:40;;;;;;;16.90;8.80;;;8.00;99.90;;;;;;4925132;28;20035;-84
2020/12/21 11:45:06;;;;;;;21.70;10.15;;;7.90;99.90;;;;;;4941023;28;20031;-84
2020/12/21 11:47:33;;;;;;;17.17;8.07;;;7.90;99.90;;;;;;4957394;28;20034;-84
2020/12/21 11:49:58;;;;;;;17.63;9.07;;;7.90;99.90;;;;;;4957101;28;20522;-84
2020/12/21 11:52:24;;;;;;;21.65;8.95;;;8.00;99.90;;;;;;4957348;28;20047;-84
2020/12/21 11:54:50;;;;;;;21.75;8.40;;;8.00;99.90;;;;;;4941501;28;20456;-83
2020/12/21 11:57:16;;;;;;;21.13;8.27;;;7.90;99.90;;;;;;4938468;29;20055;-86
2020/12/21 11:59:41;;;;;;;14.50;8.18;;;8.00;99.90;;;;;;4939338;29;20031;-86
2020/12/21 12:02:07;;;;;;;14.38;7.43;;;8.00;99.90;;;;;;4938552;29;20506;-83
2020/12/21 12:04:33;;;;;;;18.65;7.63;;;8.00;99.90;;;;;;4955361;29;20054;-83
2020/12/21 12:07:03;;;;;;;17.98;8.02;;;8.00;99.90;;;;;;4938474;29;20126;-85
2020/12/21 12:09:29;;;;;;;18.20;7.38;;;8.00;99.90;;;;;;4953694;29;20376;-85
2020/12/21 12:11:56;;;;;;;14.90;7.32;;;8.00;99.90;;;;;;4954893;28;20062;-85
2020/12/21 12:14:22;;;;;;;15.93;7.68;;;8.00;99.90;;;;;;4953417;29;20094;-85
2020/12/21 12:16:48;;;;;;;16.05;7.53;;;8.10;99.90;;;;;;4953452;29;20027;-85
2020/12/21 12:19:14;;;;;;;19.50;6.22;;;8.10;99.90;;;;;;4954385;29;20031;-85
2020/12/21 12:21:40;;;;;;;18.92;7.22;;;8.10;99.90;;;;;;4937772;29;20035;-84
2020/12/21 12:24:06;;;;;;;22.13;8.18;;;8.10;99.90;;;;;;4953724;29;20100;-85
2020/12/21 12:26:31;;;;;;;15.35;6.43;;;8.10;99.90;;;;;;4957859;28;20023;-85
2020/12/21 12:28:57;;;;;;;14.93;7.25;;;8.10;99.90;;;;;;4941548;29;20030;-84
2020/12/21 12:31:23;;;;;;;16.27;6.70;;;8.00;99.90;;;;;;4958721;28;20035;-83
2020/12/21 12:33:50;;;;;;;11.30;5.75;;;8.10;99.90;;;;;;4957081;29;20027;-84
2020/12/21 12:36:17;;;;;;;15.40;6.82;;;8.10;99.90;;;;;;4958592;28;20030;-86
2020/12/21 12:38:43;;;;;;;12.45;6.75;;;8.10;99.90;;;;;;4943289;28;20117;-84
2020/12/21 12:41:08;;;;;;;15.82;6.28;;;8.10;99.90;;;;;;4960241;28;20030;-86
2020/12/21 12:43:34;;;;;;;13.50;6.63;;;8.10;99.90;;;;;;4960608;28;20475;-85